NCAR-RAP Real-Time Weather Data

Output produced by METARs form (12 May 2021  11:21 UTC)
found at http://weather.rap.ucar.edu/surface/
 
KMIA 121053Z 14004KT 10SM SCT025 SCT250 27/23 A3004 RMK AO2 SLP174 T02670228 $
KMIA 120953Z 13005KT 10SM FEW025 FEW150 BKN250 27/23 A3003 RMK AO2 SLP169 T02670228 $
KMIA 120853Z 12007KT 10SM FEW025 SCT250 27/23 A3002 RMK AO2 SLP164 T02670228 55010 $
KMIA 120753Z 14006KT 10SM FEW024 SCT250 27/23 A3001 RMK AO2 SLP163 T02670228 $
KMIA 120653Z 11007KT 10SM FEW024 BKN250 27/23 A3003 RMK AO2 SLP168 T02720228 $
KMIA 120553Z 12009KT 10SM FEW020 SCT250 27/22 A3005 RMK AO2 SLP175 T02720222 10283 20272 58010 $
KMIA 120453Z 12007KT 10SM FEW025 SCT250 27/22 A3006 RMK AO2 SLP180 T02720222 403220244 $
KMIA 120353Z 12007KT 10SM FEW022 FEW130 BKN250 27/23 A3007 RMK AO2 SLP182 T02720228 $
KMIA 120253Z 10009KT 10SM FEW025 SCT120 SCT250 28/23 A3008 RMK AO2 SLP185 T02780228 51018 $
KMIA 120153Z 10009KT 10SM FEW025 SCT120 SCT250 28/23 A3007 RMK AO2 SLP184 T02780228 $
KMIA 120053Z 10010KT 10SM FEW025 FEW150 SCT250 28/23 A3005 RMK AO2 SLP175 T02780228 $
KMIA 112353Z 11010KT 10SM FEW028 FEW050 FEW150 BKN250 28/22 A3002 RMK AO2 SLP167 CB DSNT NW T02780222 10322 20278 53004 $
KMIA 112253Z 11008KT 10SM FEW030 FEW150 BKN250 29/22 A3001 RMK AO2 SLP163 CB DSNT W AND NW T02890217 $
KMIA 112153Z 11010KT 10SM FEW032 FEW070 SCT130 BKN250 31/22 A3002 RMK AO2 SLP165 CB DSNT SW-NW T03060222 $
KMIA 112053Z 11011KT 10SM FEW035 FEW100 BKN250 31/22 A3001 RMK AO2 SLP163 T03060217 56017 $
KMIA 111953Z COR 11011KT 10SM FEW035 FEW100 FEW250 32/22 A3002 RMK AO2 SLP165 T03170222 $